This is the latest recevied weather packets stored in our database for station/object IW1CGW-23. If no packets are shown the sender has not sent any weather packets the latest 10 day(s).
| Time | Temp. | Humidity | Pressure | Rain* | Wind** | Luminosity | Snow |
|---|---|---|---|---|---|---|---|
| 1777735048 | 18.89° C | 49% | 1023.3 hPa | - | - | - | - |
| 1777732697 | 19.44° C | 47% | 1023.7 hPa | - | - | - | - |
| 1777731128 | 19.44° C | 46% | 1024.1 hPa | - | - | - | - |
| 1777730349 | 18.89° C | 46% | 1024.4 hPa | - | - | - | - |
| 1777729565 | 19.44° C | 46% | 1024.7 hPa | - | - | - | - |
| 1777728782 | 18.89° C | 46% | 1024.8 hPa | - | - | - | - |
| 1777728781 | 18.89° C | 46% | 1024.8 hPa | - | - | - | - |
| 1777724863 | 18.89° C | 46% | 1025.2 hPa | - | - | - | - |
| 1777720939 | 21.11° C | 43% | 1025.9 hPa | - | - | - | - |
| 1777719366 | 21.11° C | 42% | 1026.1 hPa | - | - | - | - |
| 1777717002 | 22.22° C | 41% | 1026.5 hPa | - | - | - | - |
| 1777714640 | 22.78° C | 40% | 1026.6 hPa | - | - | - | - |
| 1777713066 | 23.33° C | 40% | 1026.8 hPa | - | - | - | - |
| 1777707558 | 26.11° C | 44% | 1027 hPa | - | - | - | - |
| 1777700491 | 14.44° C | 60% | 1026.6 hPa | - | - | - | - |
| 1777699709 | 13.89° C | 61% | 1026.7 hPa | - | - | - | - |
| 1777695023 | 12.78° C | 60% | 1026.4 hPa | - | - | - | - |
| 1777694243 | 12.78° C | 60% | 1026.4 hPa | - | - | - | - |
| 1777693462 | 12.78° C | 60% | 1026.4 hPa | - | - | - | - |
| 1777692681 | 12.78° C | 59% | 1026.3 hPa | - | - | - | - |
| 1777691901 | 12.78° C | 59% | 1026.4 hPa | - | - | - | - |
| 1777689560 | 13.33° C | 58% | 1026.4 hPa | - | - | - | - |
| 1777687216 | 13.33° C | 58% | 1026.5 hPa | - | - | - | - |
| 1777684874 | 13.33° C | 58% | 1026.2 hPa | - | - | - | - |
| 1777682530 | 13.89° C | 58% | 1026.1 hPa | - | - | - | - |
* Rain since midnight (hover to see other rain measurements)
** Current wind speed in m/s (hover to see current wind gust speed)